Time;durP1;ratioP1;P1;durP2;ratioP2;P2;SDS_P1;SDS_P2;PMS_P1;PMS_P2;Temp;Humidity;BMP_temperature;BMP_pressure;BME280_temperature;BME280_humidity;BME280_pressure;Samples;Min_cycle;Max_cycle;Signal;HPM_P1;HPM_P2
2021/09/14 00:03:51;;;;;;;;;;;;;;;;;;;;;
2021/09/14 00:07:34;;;;;;;;;;;;;;;;;;;;;
2021/09/14 00:11:34;;;;;;;;;;;;;;;;;;;;;
2021/09/14 00:15:17;;;;;;;16.50;7.43;;;16.60;99.90;;;;;;4901181;29;20057;-88
2021/09/14 00:19:26;;;;;;;;;;;;;;;;;;;;;
2021/09/14 00:23:03;;;;;;;14.38;6.63;;;15.70;99.90;;;;;;4833043;29;20062;-88
2021/09/14 00:27:25;;;;;;;;;;;;;;;;;;;;;
2021/09/14 00:31:16;;;;;;;;;;;;;;;;;;;;;
2021/09/14 00:39:46;;;;;;;;;;;;;;;;;;;;;
2021/09/14 00:47:25;;;;;;;;;;;;;;;;;;;;;
2021/09/14 00:54:56;;;;;;;;;;;;;;;;;;;;;
2021/09/14 00:58:35;;;;;;;;;;;;;;;;;;;;;
2021/09/14 01:06:32;;;;;;;;;;;;;;;;;;;;;
2021/09/14 01:10:22;;;;;;;21.52;8.20;;;17.10;99.90;;;;;;4827952;29;20057;-87
2021/09/14 01:13:44;;;;;;;;;;;17.00;99.90;;;;;;4816972;29;20073;-88
2021/09/14 01:16:15;;;;;;;27.77;8.02;;;18.50;99.90;;;;;;4860022;29;19924;-88
2021/09/14 01:19:06;;;;;;;20.60;7.75;;;17.00;99.90;;;;;;4878784;29;20305;-88
2021/09/14 01:22:28;;;;;;;20.90;7.38;;;17.10;99.90;;;;;;4854332;29;20054;-88
2021/09/14 01:26:22;;;;;;;27.02;8.35;;;17.10;99.90;;;;;;4829341;29;20209;-88
2021/09/14 01:33:28;;;;;;;;;;;;;;;;;;;;;
2021/09/14 01:41:50;;;;;;;23.65;8.43;;;17.20;99.90;;;;;;4827256;29;20512;-89
2021/09/14 01:45:31;;;;;;;;;;;;;;;;;;;;;
2021/09/14 01:49:30;;;;;;;18.70;7.03;;;17.10;99.90;;;;;;4806869;29;20081;-88
2021/09/14 01:52:34;;;;;;;19.80;7.03;;;17.10;99.90;;;;;;4792395;29;20058;-90
2021/09/14 01:55:54;;;;;;;22.75;8.95;;;17.20;99.90;;;;;;4797709;29;20055;-89
2021/09/14 01:59:15;;;;;;;20.50;8.82;;;17.10;99.90;;;;;;4784088;30;20059;-89
2021/09/14 02:07:00;;;;;;;22.15;7.45;;;17.20;99.90;;;;;;4757108;30;20056;-89
2021/09/14 02:39:28;;;;;;;28.75;12.38;;;17.10;99.90;;;;;;5081895;28;20057;-88
2021/09/14 02:41:58;;;;;;;21.00;7.93;;;17.10;99.90;;;;;;5103143;28;20064;-87
2021/09/14 03:01:00;;;;;;;23.38;9.35;;;17.00;99.90;;;;;;5092630;28;20119;-87
2021/09/14 03:03:34;;;;;;;25.95;9.07;;;17.00;99.90;;;;;;5093950;28;20049;-87
2021/09/14 03:06:03;;;;;;;22.92;8.63;;;17.00;99.90;;;;;;5057907;28;20057;-87
2021/09/14 03:08:35;;;;;;;25.10;9.02;;;17.00;99.90;;;;;;5081416;28;20056;-87
2021/09/14 03:11:11;;;;;;;19.55;8.85;;;17.00;99.90;;;;;;5086484;28;20056;-87
2021/09/14 03:13:50;;;;;;;31.95;11.10;;;17.00;99.90;;;;;;5051793;28;20052;-88
2021/09/14 03:16:30;;;;;;;20.75;9.50;;;17.00;99.90;;;;;;5080089;28;20049;-87
2021/09/14 03:19:01;;;;;;;23.95;9.23;;;17.10;99.90;;;;;;5040785;28;20064;-87
2021/09/14 03:21:31;;;;;;;22.80;9.90;;;17.10;99.90;;;;;;5056238;28;20052;-88
2021/09/14 03:24:04;;;;;;;26.02;9.50;;;18.10;99.90;;;;;;5047025;28;20044;-88
2021/09/14 03:26:33;;;;;;;21.35;9.25;;;17.10;99.90;;;;;;5043210;28;20049;-86
2021/09/14 03:29:03;;;;;;;19.90;9.05;;;17.10;99.90;;;;;;5056778;28;20045;-87
2021/09/14 03:31:41;;;;;;;24.88;10.02;;;17.10;99.90;;;;;;5053417;28;20037;-86
2021/09/14 03:34:11;;;;;;;20.48;9.48;;;16.70;99.90;;;;;;5062528;28;20053;-87
2021/09/14 03:36:43;;;;;;;21.92;9.85;;;17.10;99.90;;;;;;5032120;28;20037;-85
2021/09/14 03:39:16;;;;;;;31.90;11.77;;;17.10;99.90;;;;;;5042796;28;20060;-86
2021/09/14 03:41:48;;;;;;;;;;;17.10;99.90;;;;;;5064639;28;20051;-87
2021/09/14 03:44:16;;;;;;;28.63;10.60;;;17.10;99.90;;;;;;5041010;28;19929;-86
2021/09/14 03:46:44;;;;;;;25.55;12.23;;;17.10;99.90;;;;;;5042284;28;20056;-87
2021/09/14 03:49:13;;;;;;;34.10;12.48;;;17.70;99.90;;;;;;5039202;28;20060;-87
2021/09/14 03:51:42;;;;;;;27.63;12.95;;;17.00;99.90;;;;;;5059909;28;20041;-87
2021/09/14 03:54:11;;;;;;;29.05;16.63;;;17.10;99.90;;;;;;5056706;28;20057;-87
2021/09/14 03:56:39;;;;;;;43.15;19.23;;;17.00;99.90;;;;;;5057357;28;20048;-86
2021/09/14 03:59:07;;;;;;;35.55;18.05;;;17.00;99.90;;;;;;5057306;28;20057;-86
2021/09/14 04:01:42;;;;;;;35.78;20.95;;;17.00;99.90;;;;;;5039101;28;20144;-86
2021/09/14 04:04:16;;;;;;;40.05;23.10;;;17.00;99.90;;;;;;5056226;28;20048;-86
2021/09/14 04:09:23;;;;;;;44.65;24.85;;;17.10;99.90;;;;;;5043726;28;20641;-87
2021/09/14 04:11:56;;;;;;;55.33;26.58;;;17.10;99.90;;;;;;5067199;28;20048;-87
2021/09/14 04:14:29;;;;;;;49.13;27.05;;;17.10;99.90;;;;;;5045936;28;20053;-87
2021/09/14 04:16:59;;;;;;;52.83;30.75;;;17.10;99.90;;;;;;5069074;28;20045;-86
2021/09/14 04:19:28;;;;;;;58.78;32.08;;;17.10;99.90;;;;;;5056304;28;20416;-86
2021/09/14 04:21:58;;;;;;;55.03;30.77;;;17.20;99.90;;;;;;5058238;28;20199;-86
2021/09/14 04:24:35;;;;;;;59.20;32.33;;;17.20;99.90;;;;;;5056224;28;20056;-88
2021/09/14 04:27:07;;;;;;;54.53;32.05;;;17.20;99.90;;;;;;5056821;28;20061;-87
2021/09/14 04:29:37;;;;;;;58.83;34.47;;;17.20;99.90;;;;;;5056268;28;20048;-86
2021/09/14 04:32:06;;;;;;;67.32;35.75;;;17.20;99.90;;;;;;5039022;28;20053;-87
2021/09/14 04:34:34;;;;;;;64.70;33.55;;;17.20;99.90;;;;;;5049830;28;20041;-86
2021/09/14 04:37:01;;;;;;;64.10;37.05;;;17.20;99.90;;;;;;5056923;28;20040;-87
2021/09/14 04:39:33;;;;;;;55.65;34.60;;;17.20;99.90;;;;;;5043167;28;20037;-87
2021/09/14 04:42:04;;;;;;;61.15;34.22;;;17.20;99.90;;;;;;5058253;28;20060;-86
2021/09/14 04:44:34;;;;;;;58.63;35.90;;;17.20;99.90;;;;;;5070623;28;20480;-86
2021/09/14 04:47:02;;;;;;;67.25;35.63;;;17.30;99.90;;;;;;5036188;28;20068;-86
2021/09/14 04:49:30;;;;;;;56.40;35.10;;;17.20;99.90;;;;;;5041420;28;20064;-87
2021/09/14 04:52:05;;;;;;;51.78;32.13;;;17.30;99.90;;;;;;5035768;28;20061;-86
2021/09/14 04:54:34;;;;;;;58.75;36.22;;;17.30;99.90;;;;;;5068444;28;20044;-86
2021/09/14 04:57:03;;;;;;;57.15;34.90;;;17.30;99.90;;;;;;5049065;28;20068;-86
2021/09/14 04:59:31;;;;;;;68.03;35.47;;;17.30;99.90;;;;;;5027869;28;20082;-87
2021/09/14 05:02:00;;;;;;;54.95;34.63;;;17.30;99.90;;;;;;5050868;28;20068;-86
2021/09/14 05:04:29;;;;;;;57.83;30.40;;;17.30;99.90;;;;;;5069547;28;20028;-86
2021/09/14 05:06:57;;;;;;;56.45;32.67;;;17.30;99.90;;;;;;5074597;28;20060;-86
2021/09/14 05:09:25;;;;;;;58.63;32.95;;;17.30;99.90;;;;;;5062171;28;20484;-86
2021/09/14 05:11:59;;;;;;;56.60;30.65;;;17.30;99.90;;;;;;5058456;28;20140;-87
2021/09/14 05:14:30;;;;;;;60.78;35.33;;;17.30;99.90;;;;;;5041947;28;20053;-86
2021/09/14 05:17:13;;;;;;;53.70;31.10;;;17.30;99.90;;;;;;5063441;28;20044;-85
2021/09/14 05:20:04;;;;;;;57.53;30.77;;;17.30;99.90;;;;;;5047803;28;20052;-85
2021/09/14 05:22:41;;;;;;;49.85;30.92;;;17.30;99.90;;;;;;5062631;28;20057;-87
2021/09/14 05:25:10;;;;;;;58.08;32.55;;;17.30;99.90;;;;;;5057879;28;20605;-87
2021/09/14 05:27:38;;;;;;;69.57;32.90;;;17.30;99.90;;;;;;5064584;28;20476;-85
2021/09/14 05:30:08;;;;;;;51.45;32.33;;;17.30;99.90;;;;;;5066085;28;20053;-86
2021/09/14 05:32:37;;;;;;;53.53;31.75;;;17.30;99.90;;;;;;5069638;28;20053;-85
2021/09/14 05:35:07;;;;;;;59.13;32.75;;;17.30;99.90;;;;;;5063872;28;20041;-86
2021/09/14 05:37:45;;;;;;;56.75;32.92;;;17.30;99.90;;;;;;5056965;28;20053;-87
2021/09/14 05:40:13;;;;;;;62.65;32.65;;;17.30;99.90;;;;;;5030313;28;20053;-87
2021/09/14 05:42:54;;;;;;;62.38;34.40;;;17.30;99.90;;;;;;5032224;28;20060;-87
2021/09/14 05:45:23;;;;;;;57.08;31.58;;;17.20;99.90;;;;;;5064299;28;20052;-85
2021/09/14 05:47:53;;;;;;;62.53;34.75;;;17.30;99.90;;;;;;5043650;28;20045;-87
2021/09/14 05:50:24;;;;;;;61.08;32.72;;;17.30;99.90;;;;;;5043643;28;20068;-87
2021/09/14 05:52:53;;;;;;;61.33;31.13;;;17.30;99.90;;;;;;5043598;28;20045;-86
2021/09/14 05:55:21;;;;;;;64.32;35.13;;;17.30;99.90;;;;;;5065682;28;20053;-86
2021/09/14 05:57:51;;;;;;;65.70;36.08;;;16.70;99.90;;;;;;5063986;28;20059;-86
2021/09/14 06:00:23;;;;;;;62.00;32.70;;;17.40;99.90;;;;;;5063795;28;20610;-86
2021/09/14 06:02:53;;;;;;;64.78;34.17;;;17.40;99.90;;;;;;5066821;28;20033;-87
2021/09/14 06:05:22;;;;;;;57.25;32.10;;;17.40;99.90;;;;;;5049269;28;20048;-87
2021/09/14 06:07:53;;;;;;;50.92;31.70;;;17.30;99.90;;;;;;5059402;28;20037;-87
2021/09/14 06:10:22;;;;;;;58.47;32.47;;;17.40;99.90;;;;;;5042615;28;20056;-86
2021/09/14 06:13:17;;;;;;;55.75;32.75;;;17.40;99.90;;;;;;5018433;28;20053;-87
2021/09/14 06:15:49;;;;;;;57.03;33.42;;;17.40;99.90;;;;;;5039997;28;20071;-87
2021/09/14 06:18:24;;;;;;;55.50;31.13;;;17.40;99.90;;;;;;5053012;28;20049;-86
2021/09/14 06:20:55;;;;;;;65.93;34.72;;;17.40;99.90;;;;;;5046483;28;20063;-86
2021/09/14 06:23:28;;;;;;;60.53;33.13;;;17.40;99.90;;;;;;5047335;28;20053;-86
2021/09/14 06:26:00;;;;;;;59.65;32.42;;;17.40;99.90;;;;;;5041300;28;20064;-87
2021/09/14 06:28:52;;;;;;;61.07;33.83;;;17.40;99.90;;;;;;5041403;28;20045;-86
2021/09/14 06:31:26;;;;;;;56.90;31.88;;;17.40;99.90;;;;;;5051250;28;20053;-88
2021/09/14 06:33:56;;;;;;;57.30;34.47;;;17.40;99.90;;;;;;5053703;28;20045;-86
2021/09/14 06:36:25;;;;;;;56.38;32.55;;;17.40;99.90;;;;;;5044852;28;20049;-85
2021/09/14 06:38:53;;;;;;;60.85;36.15;;;17.40;99.90;;;;;;5040349;28;20611;-84
2021/09/14 06:41:28;;;;;;;59.40;34.22;;;17.40;99.90;;;;;;5050563;28;20040;-86
2021/09/14 06:44:05;;;;;;;60.38;33.75;;;17.30;99.90;;;;;;5057866;28;20060;-81
2021/09/14 06:46:45;;;;;;;50.70;32.22;;;17.30;99.90;;;;;;5032335;28;20416;-84
2021/09/14 06:49:18;;;;;;;55.00;31.48;;;17.30;99.90;;;;;;5042258;28;20044;-88
2021/09/14 06:51:46;;;;;;;58.20;33.60;;;17.30;99.90;;;;;;5044763;28;20057;-88
2021/09/14 06:54:20;;;;;;;52.47;31.63;;;17.30;99.90;;;;;;5070416;28;20773;-89
2021/09/14 06:56:53;;;;;;;69.30;36.47;;;17.40;99.90;;;;;;5037315;28;20052;-90
2021/09/14 06:59:23;;;;;;;66.38;35.58;;;17.40;99.90;;;;;;5065839;28;20067;-87
2021/09/14 07:01:59;;;;;;;56.42;32.75;;;17.40;99.90;;;;;;5066872;28;20052;-88
2021/09/14 07:04:45;;;;;;;54.85;36.45;;;17.40;99.90;;;;;;5063669;28;20059;-89
2021/09/14 07:07:15;;;;;;;65.20;35.70;;;17.30;99.90;;;;;;5048849;28;20040;-90
2021/09/14 07:10:04;;;;;;;65.97;37.35;;;17.30;99.90;;;;;;5025023;28;20409;-89
2021/09/14 07:12:32;;;;;;;61.38;35.30;;;17.30;99.90;;;;;;5060919;28;20056;-90
2021/09/14 07:15:03;;;;;;;59.83;34.70;;;17.30;99.90;;;;;;5041299;28;20546;-89
2021/09/14 07:17:38;;;;;;;73.45;37.83;;;17.30;99.90;;;;;;5046705;28;20049;-89
2021/09/14 07:20:10;;;;;;;57.35;37.53;;;17.30;99.90;;;;;;5027346;28;20053;-89
2021/09/14 07:22:39;;;;;;;57.90;36.72;;;17.30;99.90;;;;;;5043471;28;20056;-89
2021/09/14 07:25:08;;;;;;;64.13;37.20;;;17.20;99.90;;;;;;5070106;28;20060;-87
2021/09/14 07:27:39;;;;;;;62.08;36.00;;;17.30;99.90;;;;;;5033688;28;20048;-88
2021/09/14 07:30:16;;;;;;;60.80;37.20;;;17.20;99.90;;;;;;5060969;28;20045;-89
2021/09/14 07:32:51;;;;;;;59.53;36.80;;;17.20;99.90;;;;;;5036762;28;20060;-87
2021/09/14 07:35:30;;;;;;;58.65;34.00;;;17.20;99.90;;;;;;5038628;28;20045;-88
2021/09/14 07:38:00;;;;;;;63.65;35.65;;;17.30;99.90;;;;;;5048997;28;20072;-89
2021/09/14 07:40:29;;;;;;;56.53;31.88;;;17.30;99.90;;;;;;5018937;28;20057;-89
2021/09/14 07:42:58;;;;;;;52.03;33.83;;;17.30;99.90;;;;;;5057315;28;20593;-89
2021/09/14 07:45:27;;;;;;;58.72;33.58;;;17.30;99.90;;;;;;5036026;28;20057;-89
2021/09/14 07:47:56;;;;;;;63.50;36.00;;;17.30;99.90;;;;;;5034010;28;20049;-89
2021/09/14 07:50:24;;;;;;;57.97;35.35;;;17.30;99.90;;;;;;5039238;28;20053;-89
2021/09/14 07:52:52;;;;;;;49.42;28.67;;;17.40;99.90;;;;;;5056438;28;20045;-88
2021/09/14 07:55:23;;;;;;;58.45;32.00;;;17.40;99.90;;;;;;5052425;28;20044;-88
2021/09/14 07:57:54;;;;;;;48.13;32.10;;;17.40;99.90;;;;;;5058693;28;20051;-88
2021/09/14 08:00:24;;;;;;;53.83;31.85;;;17.40;99.90;;;;;;5075081;28;20032;-88
2021/09/14 08:02:56;;;;;;;55.55;32.70;;;17.40;99.90;;;;;;5073166;28;20053;-89
2021/09/14 08:05:26;;;;;;;60.22;32.88;;;17.40;99.90;;;;;;5041319;28;20428;-88
2021/09/14 08:07:57;;;;;;;53.88;32.15;;;17.50;99.90;;;;;;5028056;28;20045;-89
2021/09/14 08:10:25;;;;;;;58.22;31.38;;;17.50;99.90;;;;;;5033593;28;20420;-89
2021/09/14 08:12:53;;;;;;;53.08;33.10;;;17.50;99.90;;;;;;5049293;28;20061;-89
2021/09/14 08:15:24;;;;;;;62.42;35.63;;;17.60;99.90;;;;;;5059151;28;20040;-88
2021/09/14 08:17:52;;;;;;;63.72;33.33;;;17.70;99.90;;;;;;5048600;28;20052;-89
2021/09/14 08:20:21;;;;;;;63.33;34.67;;;16.80;99.90;;;;;;5044741;28;20049;-88
2021/09/14 08:22:52;;;;;;;;;;;17.70;99.90;;;;;;5028728;28;20059;-87
2021/09/14 08:25:35;;;;;;;75.28;37.92;;;17.80;99.90;;;;;;5055515;28;19932;-88
2021/09/14 08:28:06;;;;;;;53.40;31.63;;;17.80;99.90;;;;;;5039270;28;20058;-89
2021/09/14 08:30:36;;;;;;;73.93;34.40;;;17.80;99.90;;;;;;5052467;28;20041;-88
2021/09/14 08:33:05;;;;;;;64.05;33.85;;;17.80;99.90;;;;;;5060215;28;20120;-88
2021/09/14 08:35:40;;;;;;;58.22;33.90;;;17.80;99.90;;;;;;5043026;28;20053;-88
2021/09/14 08:38:08;;;;;;;57.70;33.45;;;17.80;99.90;;;;;;5055572;28;20400;-89
2021/09/14 08:40:40;;;;;;;55.35;32.33;;;17.80;99.90;;;;;;5043623;28;20056;-88
2021/09/14 08:43:14;;;;;;;52.70;33.20;;;17.80;99.90;;;;;;5031085;28;20045;-89
2021/09/14 08:45:46;;;;;;;59.25;32.67;;;17.80;99.90;;;;;;5069389;28;20036;-88
2021/09/14 08:48:26;;;;;;;62.70;36.15;;;17.70;99.90;;;;;;5056051;28;20063;-88
2021/09/14 08:50:55;;;;;;;66.20;36.90;;;17.70;99.90;;;;;;5037634;28;20049;-88
2021/09/14 08:53:23;;;;;;;59.45;35.55;;;17.70;99.90;;;;;;5026607;28;20049;-88
2021/09/14 08:55:53;;;;;;;68.07;33.78;;;17.80;99.90;;;;;;5058689;28;20244;-84
2021/09/14 08:58:24;;;;;;;68.95;36.33;;;17.80;99.90;;;;;;5058668;28;20068;-89
2021/09/14 09:00:55;;;;;;;68.05;36.63;;;17.90;99.90;;;;;;5078936;28;20048;-88
2021/09/14 09:03:30;;;;;;;62.90;35.40;;;17.90;99.90;;;;;;5059463;28;21417;-89
2021/09/14 09:05:59;;;;;;;56.00;35.58;;;17.90;99.90;;;;;;5061389;28;20052;-88
2021/09/14 09:08:30;;;;;;;70.03;34.25;;;17.90;99.90;;;;;;5045111;28;20053;-89
2021/09/14 09:11:12;;;;;;;63.53;33.60;;;17.90;99.90;;;;;;5042218;28;20060;-88
2021/09/14 09:13:44;;;;;;;68.72;31.67;;;17.90;99.90;;;;;;5042360;28;20053;-88
2021/09/14 09:16:25;;;;;;;60.95;31.38;;;17.90;99.90;;;;;;5058354;28;20412;-89
2021/09/14 09:19:01;;;;;;;59.85;33.17;;;19.00;99.90;;;;;;5054903;28;20052;-90
2021/09/14 09:21:39;;;;;;;63.47;34.25;;;17.90;99.90;;;;;;5044189;28;20520;-87
2021/09/14 09:24:09;;;;;;;60.40;34.03;;;17.90;99.90;;;;;;5060566;28;20056;-89
2021/09/14 09:26:45;;;;;;;77.50;35.83;;;17.90;99.90;;;;;;5035657;28;20045;-89
2021/09/14 09:29:24;;;;;;;61.70;32.20;;;18.00;99.90;;;;;;5042381;28;20052;-88
2021/09/14 09:31:58;;;;;;;64.65;35.38;;;18.00;99.90;;;;;;5039547;28;20041;-89
2021/09/14 09:34:28;;;;;;;59.63;34.90;;;17.30;99.90;;;;;;5040994;28;20059;-89
2021/09/14 09:37:05;;;;;;;65.85;36.03;;;18.00;99.90;;;;;;5045184;28;20512;-89
2021/09/14 09:39:45;;;;;;;66.47;35.13;;;18.10;99.90;;;;;;5057464;28;20041;-88
2021/09/14 09:42:19;;;;;;;60.85;34.60;;;18.20;99.90;;;;;;5042881;28;20490;-87
2021/09/14 09:44:58;;;;;;;75.10;40.60;;;18.10;99.90;;;;;;5041806;28;20049;-85
2021/09/14 09:47:40;;;;;;;60.88;37.15;;;18.10;99.90;;;;;;5029225;28;20049;-88
2021/09/14 09:50:13;;;;;;;80.22;38.97;;;18.20;99.90;;;;;;5025185;28;20653;-88
2021/09/14 09:52:46;;;;;;;64.35;37.53;;;18.20;99.90;;;;;;5041403;28;20045;-88
2021/09/14 09:55:15;;;;;;;68.38;39.33;;;18.20;99.90;;;;;;5027065;28;20045;-85
2021/09/14 09:57:44;;;;;;;69.45;37.08;;;18.30;99.90;;;;;;5034272;28;20080;-87
2021/09/14 10:00:16;;;;;;;80.57;40.15;;;18.30;99.90;;;;;;5056060;28;20488;-86
2021/09/14 10:03:03;;;;;;;67.13;39.78;;;18.30;99.90;;;;;;5040820;28;20053;-85
2021/09/14 10:05:41;;;;;;;69.15;37.05;;;18.40;99.90;;;;;;5037531;28;20056;-87
2021/09/14 10:08:15;;;;;;;59.97;36.30;;;18.40;99.90;;;;;;5062323;28;20053;-86
2021/09/14 10:10:52;;;;;;;59.97;37.72;;;18.40;99.90;;;;;;5054155;28;20060;-88
2021/09/14 10:13:39;;;;;;;86.95;44.35;;;18.40;99.90;;;;;;5058519;28;20056;-87
2021/09/14 10:16:21;;;;;;;61.85;38.67;;;18.40;99.90;;;;;;5033712;28;20036;-87
2021/09/14 10:19:05;;;;;;;65.75;37.78;;;18.50;99.90;;;;;;5018636;28;20064;-86
2021/09/14 10:21:39;;;;;;;61.78;39.33;;;18.40;99.90;;;;;;5045040;28;20056;-86
2021/09/14 10:24:20;;;;;;;61.83;39.40;;;18.40;99.90;;;;;;5027346;28;20410;-87
2021/09/14 10:26:49;;;;;;;79.82;42.05;;;18.50;99.90;;;;;;5049814;28;20037;-88
2021/09/14 10:29:19;;;;;;;81.57;40.03;;;18.40;99.90;;;;;;5063609;28;20057;-88
2021/09/14 10:32:19;;;;;;;67.75;36.13;;;18.60;99.90;;;;;;5047761;28;20100;-87
2021/09/14 10:34:55;;;;;;;65.35;36.60;;;18.60;99.90;;;;;;5045849;28;20058;-88
2021/09/14 10:37:32;;;;;;;66.68;38.40;;;18.70;99.90;;;;;;5060017;28;20033;-89
2021/09/14 10:40:15;;;;;;;62.60;38.42;;;18.80;99.90;;;;;;5044049;28;20691;-85
2021/09/14 10:42:47;;;;;;;62.97;38.70;;;18.80;99.90;;;;;;5059932;28;20059;-88
2021/09/14 10:45:18;;;;;;;69.03;39.97;;;18.80;99.90;;;;;;5032124;28;20041;-88
2021/09/14 10:47:48;;;;;;;67.47;41.17;;;18.90;99.90;;;;;;5056924;28;20060;-87
2021/09/14 10:50:32;;;;;;;64.20;38.38;;;19.00;99.90;;;;;;5074623;28;20045;-86
2021/09/14 10:53:03;;;;;;;62.92;35.42;;;19.00;99.90;;;;;;5066548;28;20052;-89
2021/09/14 10:55:36;;;;;;;61.20;37.15;;;19.20;99.90;;;;;;5038143;28;20041;-87
2021/09/14 10:58:11;;;;;;;65.70;36.25;;;20.00;99.90;;;;;;5067564;28;20072;-89
2021/09/14 11:00:47;;;;;;;63.75;38.28;;;19.30;99.90;;;;;;5066853;28;20041;-88
2021/09/14 11:03:20;;;;;;;59.67;38.17;;;19.30;99.90;;;;;;5068857;28;20395;-87
2021/09/14 11:05:51;;;;;;;73.38;37.78;;;19.40;99.90;;;;;;5053506;28;20044;-88
2021/09/14 11:08:26;;;;;;;55.95;35.42;;;19.40;99.90;;;;;;5051431;28;20485;-87
2021/09/14 11:10:59;;;;;;;57.22;36.08;;;19.40;99.90;;;;;;5058210;28;20049;-88
2021/09/14 11:13:30;;;;;;;60.65;36.22;;;19.30;99.90;;;;;;5060149;28;20273;-87
2021/09/14 11:16:04;;;;;;;58.55;37.20;;;19.00;99.90;;;;;;5048700;28;20048;-87
2021/09/14 11:18:37;;;;;;;61.25;36.47;;;19.30;99.90;;;;;;5064358;28;20503;-89
2021/09/14 11:21:14;;;;;;;61.53;39.33;;;19.70;99.90;;;;;;5065431;28;20048;-88
2021/09/14 11:23:46;;;;;;;57.75;37.55;;;19.30;99.90;;;;;;5062413;28;20041;-89
2021/09/14 11:26:23;;;;;;;62.58;39.00;;;20.00;99.90;;;;;;5024192;28;20413;-87
2021/09/14 11:28:58;;;;;;;62.58;38.05;;;19.30;99.90;;;;;;5066285;28;20513;-89
2021/09/14 11:31:35;;;;;;;67.80;41.35;;;19.20;99.90;;;;;;5057928;28;20049;-91
2021/09/14 11:34:56;;;;;;;60.58;39.65;;;18.10;99.90;;;;;;5062277;28;20035;-90
2021/09/14 11:37:32;;;;;;;60.50;38.15;;;19.10;99.90;;;;;;5065411;28;20044;-86
2021/09/14 11:40:18;;;;;;;56.95;36.42;;;19.20;99.90;;;;;;5055094;28;20029;-90
2021/09/14 11:42:58;;;;;;;60.17;38.08;;;19.10;99.90;;;;;;5028919;28;20060;-89
2021/09/14 11:46:25;;;;;;;64.68;39.05;;;19.10;99.90;;;;;;5056404;28;20057;-90
2021/09/14 11:49:00;;;;;;;62.90;36.92;;;19.10;99.90;;;;;;5055435;28;20044;-89
2021/09/14 11:51:37;;;;;;;65.95;41.33;;;19.10;99.90;;;;;;5050359;28;20068;-89
2021/09/14 11:54:15;;;;;;;65.13;41.13;;;19.10;99.90;;;;;;5039220;28;20060;-89
2021/09/14 11:56:55;;;;;;;53.85;37.97;;;19.10;99.90;;;;;;5028184;28;20041;-90
2021/09/14 11:59:32;;;;;;;60.45;37.15;;;19.20;99.90;;;;;;5050132;28;20045;-90
2021/09/14 12:02:00;;;;;;;62.78;37.33;;;19.30;99.90;;;;;;5047857;28;20156;-89
2021/09/14 12:04:33;;;;;;;57.80;38.38;;;19.30;99.90;;;;;;5046229;28;20042;-88
2021/09/14 12:07:02;;;;;;;62.42;38.97;;;19.30;99.90;;;;;;5048174;28;20041;-89
2021/09/14 12:09:31;;;;;;;60.05;37.00;;;19.40;99.90;;;;;;5044446;28;20052;-88
2021/09/14 12:12:08;;;;;;;64.63;40.50;;;19.40;99.90;;;;;;5045266;28;20057;-89
2021/09/14 12:14:37;;;;;;;61.17;39.67;;;19.40;99.90;;;;;;5045801;28;20056;-88
2021/09/14 12:17:08;;;;;;;61.58;37.63;;;19.40;99.90;;;;;;5061297;28;20061;-91
2021/09/14 12:19:51;;;;;;;59.65;36.92;;;19.40;99.90;;;;;;5045825;28;20048;-89
2021/09/14 12:22:21;;;;;;;61.42;36.45;;;19.40;99.90;;;;;;5061550;28;20041;-89
2021/09/14 12:25:02;;;;;;;60.42;36.50;;;19.40;99.90;;;;;;5047323;28;20543;-88
2021/09/14 12:27:31;;;;;;;59.25;34.95;;;19.40;99.90;;;;;;5045640;28;20080;-89
2021/09/14 12:30:05;;;;;;;57.92;35.95;;;19.40;99.90;;;;;;5044943;28;20057;-87
2021/09/14 12:32:33;;;;;;;61.13;39.05;;;19.40;99.90;;;;;;5048813;28;20056;-88
2021/09/14 12:35:11;;;;;;;60.20;37.58;;;19.40;99.90;;;;;;5066621;28;20037;-89
2021/09/14 12:37:47;;;;;;;58.40;36.95;;;19.40;99.90;;;;;;5043821;28;20044;-90
2021/09/14 12:40:17;;;;;;;62.90;36.08;;;19.40;99.90;;;;;;5075649;28;20043;-88
2021/09/14 12:42:45;;;;;;;55.40;36.20;;;19.40;99.90;;;;;;5045414;28;20056;-84
2021/09/14 12:45:12;;;;;;;58.80;36.08;;;19.40;99.90;;;;;;5054057;28;20064;-84
2021/09/14 12:47:40;;;;;;;52.72;35.15;;;19.40;99.90;;;;;;5040406;28;20056;-83
2021/09/14 12:50:09;;;;;;;60.50;36.17;;;19.40;99.90;;;;;;5062030;28;20519;-84
2021/09/14 12:52:38;;;;;;;63.55;38.63;;;19.50;99.90;;;;;;5059505;28;20045;-88
2021/09/14 12:55:09;;;;;;;55.63;36.25;;;19.50;99.90;;;;;;5045602;28;20041;-84
2021/09/14 12:57:38;;;;;;;56.63;36.15;;;19.50;99.90;;;;;;5042382;28;20053;-85
2021/09/14 13:00:11;;;;;;;55.80;35.88;;;19.50;99.90;;;;;;5046730;28;20037;-83
2021/09/14 13:02:41;;;;;;;53.85;36.63;;;19.50;99.90;;;;;;5065008;28;20176;-83
2021/09/14 13:05:13;;;;;;;55.95;35.08;;;19.50;99.90;;;;;;5039813;28;20528;-83
2021/09/14 13:07:41;;;;;;;61.40;38.35;;;19.50;99.90;;;;;;5058902;28;20052;-85
2021/09/14 13:10:29;;;;;;;62.80;38.92;;;19.60;99.90;;;;;;5059665;28;20467;-87
2021/09/14 13:18:32;;;;;;;54.10;34.58;;;19.70;99.90;;;;;;5064777;28;20041;-82
2021/09/14 13:21:05;;;;;;;55.95;35.15;;;19.70;99.90;;;;;;5052886;28;20048;-90
2021/09/14 13:23:53;;;;;;;58.72;34.83;;;19.70;99.90;;;;;;5055142;28;20037;-91
2021/09/14 13:26:36;;;;;;;61.72;37.22;;;19.60;99.90;;;;;;5039317;28;20049;-91
2021/09/14 13:29:13;;;;;;;54.58;37.00;;;19.60;99.90;;;;;;5065606;28;20064;-91
2021/09/14 13:31:47;;;;;;;61.17;39.33;;;18.80;99.90;;;;;;5039871;28;20040;-90
2021/09/14 13:34:34;;;;;;;58.22;38.67;;;19.60;99.90;;;;;;5048218;28;20725;-91
2021/09/14 13:37:04;;;;;;;61.33;41.10;;;19.60;99.90;;;;;;5056874;28;20059;-90
2021/09/14 13:39:35;;;;;;;66.70;39.95;;;19.60;99.90;;;;;;5028784;28;20590;-90
2021/09/14 13:42:23;;;;;;;61.15;39.72;;;19.50;99.90;;;;;;5028175;28;20524;-88
2021/09/14 13:48:09;;;;;;;56.38;35.85;;;19.50;99.90;;;;;;5030194;28;20068;-90
2021/09/14 13:50:48;;;;;;;51.10;35.00;;;19.50;99.90;;;;;;5044765;28;20508;-91
2021/09/14 13:54:06;;;;;;;60.75;35.90;;;19.40;99.90;;;;;;5051646;28;20054;-90
2021/09/14 13:56:58;;;;;;;58.92;35.60;;;19.50;99.90;;;;;;5064626;28;20045;-91
2021/09/14 13:59:45;;;;;;;54.77;37.70;;;19.50;99.90;;;;;;5073741;28;20490;-86
2021/09/14 14:02:32;;;;;;;65.30;40.53;;;19.50;99.90;;;;;;5124068;23;20076;-91
2021/09/14 14:05:23;;;;;;;61.72;37.03;;;19.50;99.90;;;;;;5010749;28;20060;-92
2021/09/14 14:08:14;;;;;;;56.47;36.28;;;19.50;99.90;;;;;;5022889;28;20058;-92
2021/09/14 14:10:47;;;;;;;53.80;35.85;;;19.40;99.90;;;;;;4986313;28;20067;-90
2021/09/14 14:13:21;;;;;;;54.50;35.85;;;19.40;99.90;;;;;;5006976;28;20058;-85
2021/09/14 14:15:53;;;;;;;55.65;36.90;;;19.40;99.90;;;;;;5018607;28;20049;-84
2021/09/14 14:18:23;;;;;;;56.72;35.97;;;19.40;99.90;;;;;;5018553;28;20053;-84
2021/09/14 14:20:51;;;;;;;58.63;36.50;;;19.40;99.90;;;;;;5018364;28;20049;-83
2021/09/14 14:23:20;;;;;;;54.80;35.22;;;19.40;99.90;;;;;;5001054;28;20056;-84
2021/09/14 14:25:49;;;;;;;54.88;37.85;;;19.40;99.90;;;;;;5021368;28;20049;-83
2021/09/14 14:28:21;;;;;;;59.78;38.33;;;19.40;99.90;;;;;;5027099;28;20049;-88
2021/09/14 14:30:54;;;;;;;54.40;35.92;;;19.40;99.90;;;;;;5020802;28;20417;-84
2021/09/14 14:33:24;;;;;;;59.75;37.88;;;19.30;99.90;;;;;;5001957;28;20034;-86
2021/09/14 14:35:51;;;;;;;52.28;36.78;;;19.30;99.90;;;;;;5045078;28;20049;-87
2021/09/14 14:38:25;;;;;;;52.72;35.03;;;19.30;99.90;;;;;;5029980;28;20054;-84
2021/09/14 14:40:54;;;;;;;54.85;36.67;;;19.30;99.90;;;;;;5022411;28;20050;-86
2021/09/14 14:43:22;;;;;;;49.22;33.88;;;19.30;99.90;;;;;;5038052;28;20497;-83
2021/09/14 14:45:50;;;;;;;55.45;35.08;;;19.30;99.90;;;;;;5019594;28;20067;-84
2021/09/14 14:48:21;;;;;;;54.88;33.42;;;19.20;99.90;;;;;;5020607;28;20058;-85
2021/09/14 14:50:49;;;;;;;52.47;32.47;;;19.20;99.90;;;;;;5020524;28;20052;-85
2021/09/14 14:53:16;;;;;;;56.22;36.05;;;19.20;99.90;;;;;;5027335;28;20048;-85
2021/09/14 14:55:45;;;;;;;52.58;34.38;;;19.20;99.90;;;;;;5023212;28;20074;-85
2021/09/14 14:58:13;;;;;;;53.58;33.08;;;19.20;99.90;;;;;;5022021;28;20038;-83
2021/09/14 15:00:43;;;;;;;51.55;35.05;;;19.20;99.90;;;;;;5023123;28;20045;-85
2021/09/14 15:03:12;;;;;;;53.38;34.47;;;19.20;99.90;;;;;;5033335;28;20069;-83
2021/09/14 15:05:45;;;;;;;52.47;35.42;;;19.20;99.90;;;;;;5022415;28;20053;-85
2021/09/14 15:08:16;;;;;;;57.90;38.35;;;19.20;99.90;;;;;;4998969;28;20058;-83
2021/09/14 15:10:49;;;;;;;53.08;34.95;;;19.20;99.90;;;;;;5015341;28;20065;-84
2021/09/14 15:13:18;;;;;;;54.75;34.63;;;19.20;99.90;;;;;;5017636;28;20066;-83